Time;durP1;ratioP1;P1;durP2;ratioP2;P2;SDS_P1;SDS_P2;PMS_P1;PMS_P2;Temp;Humidity;BMP_temperature;BMP_pressure;BME280_temperature;BME280_humidity;BME280_pressure;Samples;Min_cycle;Max_cycle;Signal;HPM_P1;HPM_P2
2021/03/14 00:01:44;;;;;;;0.50;0.50;;;3.30;99.90;;;;;;4884812;29;20548;-86
2021/03/14 00:04:09;;;;;;;1.00;0.90;;;3.30;99.90;;;;;;4886680;29;20461;-87
2021/03/14 00:06:35;;;;;;;1.37;0.97;;;3.20;99.90;;;;;;4883625;29;20207;-88
2021/03/14 00:09:04;;;;;;;0.83;0.70;;;3.20;99.90;;;;;;4877125;29;20616;-88
2021/03/14 00:11:29;;;;;;;0.90;0.87;;;3.30;99.90;;;;;;4877518;29;20742;-88
2021/03/14 00:13:55;;;;;;;0.60;0.60;;;3.30;99.90;;;;;;4884202;29;20538;-87
2021/03/14 00:16:21;;;;;;;0.67;0.67;;;3.30;99.90;;;;;;4880526;29;20193;-87
2021/03/14 00:18:46;;;;;;;1.13;0.80;;;3.30;99.90;;;;;;4877611;29;20263;-88
2021/03/14 00:21:14;;;;;;;0.60;0.60;;;3.30;99.90;;;;;;4897517;29;20970;-88
2021/03/14 00:23:40;;;;;;;1.30;0.83;;;3.40;99.90;;;;;;4875683;29;20186;-87
2021/03/14 00:26:06;;;;;;;0.93;0.80;;;3.50;99.90;;;;;;4881273;29;20470;-87
2021/03/14 00:28:31;;;;;;;1.80;0.93;;;3.50;99.90;;;;;;4882562;29;20286;-86
2021/03/14 00:30:57;;;;;;;0.70;0.70;;;3.50;99.90;;;;;;4881021;29;20660;-87
2021/03/14 00:33:23;;;;;;;1.37;0.90;;;3.60;99.90;;;;;;4886838;29;20212;-87
2021/03/14 00:35:49;;;;;;;2.47;0.90;;;3.70;99.90;;;;;;4883883;29;20471;-86
2021/03/14 00:38:15;;;;;;;1.03;0.60;;;3.70;99.90;;;;;;4876181;29;20185;-87
2021/03/14 00:40:41;;;;;;;1.07;0.70;;;3.70;99.90;;;;;;4881123;29;20192;-86
2021/03/14 00:43:07;;;;;;;0.70;0.70;;;3.70;99.90;;;;;;4897316;29;20531;-87
2021/03/14 00:45:38;;;;;;;0.80;0.53;;;3.80;99.90;;;;;;4883116;29;20837;-86
2021/03/14 00:48:05;;;;;;;0.70;0.60;;;3.80;99.90;;;;;;4883982;29;20973;-85
2021/03/14 00:50:36;;;;;;;0.53;0.53;;;3.90;99.90;;;;;;4895511;29;20456;-85
2021/03/14 00:53:03;;;;;;;0.73;0.63;;;3.90;99.90;;;;;;4885069;29;20444;-85
2021/03/14 00:55:28;;;;;;;1.23;0.80;;;3.90;99.90;;;;;;4882364;29;21271;-85
2021/03/14 00:57:54;;;;;;;1.30;0.67;;;3.90;99.90;;;;;;4882618;29;22270;-85
2021/03/14 01:00:20;;;;;;;1.27;0.77;;;4.00;99.90;;;;;;4897369;29;20208;-86
2021/03/14 01:02:46;;;;;;;0.30;0.30;;;3.90;99.90;;;;;;4893884;29;20253;-86
2021/03/14 01:05:12;;;;;;;0.50;0.20;;;3.80;99.90;;;;;;4884628;29;20858;-86
2021/03/14 01:07:38;;;;;;;0.23;0.23;;;3.60;99.90;;;;;;4897606;29;20224;-86
2021/03/14 01:10:04;;;;;;;0.50;0.30;;;3.50;99.90;;;;;;4884897;29;20477;-86
2021/03/14 01:12:30;;;;;;;0.40;0.40;;;3.40;99.90;;;;;;4883846;29;20200;-85
2021/03/14 01:14:56;;;;;;;0.50;0.50;;;3.30;99.90;;;;;;4882524;29;20468;-86
2021/03/14 01:17:21;;;;;;;0.50;0.50;;;3.30;99.90;;;;;;4880360;29;20196;-86
2021/03/14 01:19:47;;;;;;;0.70;0.37;;;3.30;99.90;;;;;;4880503;29;20189;-86
2021/03/14 01:22:12;;;;;;;0.50;0.40;;;3.30;99.90;;;;;;4880760;29;20193;-86
2021/03/14 01:24:38;;;;;;;0.40;0.30;;;3.30;99.90;;;;;;4880614;29;21143;-86
2021/03/14 01:27:04;;;;;;;0.57;0.27;;;3.30;99.90;;;;;;4884015;29;20192;-86
2021/03/14 01:29:29;;;;;;;0.43;0.43;;;3.30;99.90;;;;;;4880384;29;20703;-86
2021/03/14 01:31:55;;;;;;;0.63;0.40;;;3.30;99.90;;;;;;4898817;29;20534;-85
2021/03/14 01:34:21;;;;;;;0.60;0.30;;;3.30;99.90;;;;;;4895798;29;20316;-86
2021/03/14 01:36:46;;;;;;;0.80;0.50;;;3.30;99.90;;;;;;4895970;29;20184;-86
2021/03/14 01:39:12;;;;;;;0.93;0.37;;;3.30;99.90;;;;;;4882774;29;20192;-86
2021/03/14 01:41:38;;;;;;;0.30;0.20;;;3.30;99.90;;;;;;4882143;29;21223;-86
2021/03/14 01:44:03;;;;;;;0.30;0.30;;;3.30;99.90;;;;;;4885688;29;20200;-86
2021/03/14 01:46:29;;;;;;;0.30;0.30;;;3.30;99.90;;;;;;4882807;29;20733;-85
2021/03/14 01:48:55;;;;;;;0.20;0.20;;;3.40;99.90;;;;;;4881472;29;20610;-85
2021/03/14 01:51:21;;;;;;;0.83;0.30;;;3.30;99.90;;;;;;4881067;29;20679;-86
2021/03/14 01:53:48;;;;;;;0.30;0.23;;;3.30;99.90;;;;;;4879051;29;20816;-86
2021/03/14 01:56:15;;;;;;;0.20;0.20;;;3.40;99.90;;;;;;4882868;29;20456;-86
2021/03/14 01:58:42;;;;;;;0.20;0.20;;;3.40;99.90;;;;;;4893902;29;21005;-86
2021/03/14 02:01:07;;;;;;;0.87;0.20;;;3.30;99.90;;;;;;4879246;29;20437;-86
2021/03/14 02:03:33;;;;;;;0.30;0.20;;;3.30;99.90;;;;;;4880666;29;20833;-86
2021/03/14 02:05:59;;;;;;;0.33;0.30;;;3.40;99.90;;;;;;4876685;29;20181;-86
2021/03/14 02:08:24;;;;;;;0.20;0.20;;;3.30;99.90;;;;;;4896233;29;20586;-85
2021/03/14 02:10:53;;;;;;;0.20;0.20;;;3.30;99.90;;;;;;4893346;29;20540;-86
2021/03/14 02:13:32;;;;;;;0.43;0.27;;;3.30;99.90;;;;;;4883389;29;20672;-86
2021/03/14 02:16:11;;;;;;;0.40;0.40;;;3.40;99.90;;;;;;4900961;29;20460;-86
2021/03/14 02:18:40;;;;;;;0.20;0.20;;;3.40;99.90;;;;;;4882912;29;20486;-86
2021/03/14 02:21:06;;;;;;;1.83;0.20;;;3.40;99.90;;;;;;4882885;29;20448;-86
2021/03/14 02:23:55;;;;;;;0.60;0.60;;;3.40;99.90;;;;;;4882890;29;20556;-86
2021/03/14 02:26:25;;;;;;;0.30;0.20;;;3.40;99.90;;;;;;4882851;29;20536;-85
2021/03/14 02:28:52;;;;;;;1.90;0.20;;;3.40;99.90;;;;;;4878343;29;20479;-85
2021/03/14 02:31:20;;;;;;;0.20;0.20;;;3.40;99.90;;;;;;4881654;29;21000;-85
2021/03/14 02:33:51;;;;;;;0.30;0.20;;;3.50;99.90;;;;;;4890610;29;20938;-85
2021/03/14 02:36:19;;;;;;;0.20;0.20;;;3.50;99.90;;;;;;4882755;29;20492;-85
2021/03/14 02:38:47;;;;;;;0.30;0.20;;;3.40;99.90;;;;;;4882307;29;20452;-85
2021/03/14 02:41:14;;;;;;;0.30;0.20;;;3.40;99.90;;;;;;4883221;29;20477;-85
2021/03/14 02:43:40;;;;;;;0.23;0.20;;;3.40;99.90;;;;;;4880909;29;20815;-85
2021/03/14 02:46:06;;;;;;;0.20;0.20;;;3.40;99.90;;;;;;4883086;29;20452;-85
2021/03/14 02:48:33;;;;;;;0.30;0.20;;;3.40;99.90;;;;;;4882896;29;20815;-85
2021/03/14 02:51:01;;;;;;;0.20;0.20;;;3.30;99.90;;;;;;4880862;29;20487;-85
2021/03/14 02:53:27;;;;;;;0.30;0.27;;;3.30;99.90;;;;;;4881138;29;20496;-85
2021/03/14 02:55:54;;;;;;;0.20;0.20;;;3.30;99.90;;;;;;4899327;29;20456;-85
2021/03/14 02:58:22;;;;;;;0.30;0.30;;;3.30;99.90;;;;;;4881830;29;20899;-85
2021/03/14 03:00:48;;;;;;;0.27;0.27;;;3.20;99.90;;;;;;4894638;29;20476;-86
2021/03/14 03:03:14;;;;;;;0.70;0.30;;;3.20;99.90;;;;;;4881737;29;20435;-86
2021/03/14 03:05:41;;;;;;;0.20;0.20;;;3.20;99.90;;;;;;4895111;29;21571;-86
2021/03/14 03:08:07;;;;;;;0.30;0.20;;;3.20;99.90;;;;;;4878780;29;20449;-86
2021/03/14 03:10:43;;;;;;;0.20;0.20;;;3.10;99.90;;;;;;4887266;29;20491;-86
2021/03/14 03:13:10;;;;;;;0.73;0.30;;;3.20;99.90;;;;;;4893597;29;20449;-86
2021/03/14 03:15:37;;;;;;;0.50;0.50;;;3.20;99.90;;;;;;4893086;29;20803;-85
2021/03/14 03:18:03;;;;;;;0.20;0.20;;;3.20;99.90;;;;;;4894888;29;20440;-85
2021/03/14 03:20:29;;;;;;;0.30;0.20;;;3.20;99.90;;;;;;4877877;29;20516;-86
2021/03/14 03:22:55;;;;;;;0.20;0.20;;;3.20;99.90;;;;;;4882969;29;20539;-85
2021/03/14 03:25:23;;;;;;;0.40;0.30;;;3.20;99.90;;;;;;4879283;29;20910;-85
2021/03/14 03:27:49;;;;;;;0.30;0.30;;;3.10;99.90;;;;;;4882538;29;20496;-85
2021/03/14 03:30:17;;;;;;;0.40;0.40;;;3.10;99.90;;;;;;4884808;29;20480;-86
2021/03/14 03:32:43;;;;;;;0.40;0.40;;;3.10;99.90;;;;;;4882256;29;20452;-86
2021/03/14 03:35:11;;;;;;;0.50;0.50;;;3.10;99.90;;;;;;4882439;29;20455;-85
2021/03/14 03:37:37;;;;;;;0.60;0.50;;;3.10;99.90;;;;;;4882982;29;20208;-86
2021/03/14 03:40:09;;;;;;;0.40;0.40;;;3.00;99.90;;;;;;4894364;29;20453;-85
2021/03/14 03:42:48;;;;;;;0.30;0.20;;;3.00;99.90;;;;;;4880357;29;20566;-85
2021/03/14 03:45:15;;;;;;;0.40;0.40;;;3.00;99.90;;;;;;4877950;29;20461;-86
2021/03/14 03:47:43;;;;;;;0.50;0.50;;;3.00;99.90;;;;;;4881276;29;20782;-86
2021/03/14 03:50:11;;;;;;;0.40;0.40;;;3.00;99.90;;;;;;4879617;29;20484;-86
2021/03/14 03:52:39;;;;;;;0.50;0.50;;;3.00;99.90;;;;;;4881794;29;20492;-85
2021/03/14 03:55:07;;;;;;;1.07;0.60;;;3.00;99.90;;;;;;4893807;29;20448;-86
2021/03/14 03:57:34;;;;;;;0.40;0.40;;;3.00;99.90;;;;;;4900325;29;20444;-85
2021/03/14 04:00:00;;;;;;;0.50;0.50;;;3.00;99.90;;;;;;4878614;29;20515;-85
2021/03/14 04:02:26;;;;;;;0.60;0.43;;;3.00;99.90;;;;;;4882736;29;20454;-85
2021/03/14 04:04:52;;;;;;;1.00;0.60;;;2.90;99.90;;;;;;4879418;29;20448;-85
2021/03/14 04:07:18;;;;;;;0.47;0.47;;;2.90;99.90;;;;;;4898633;29;20647;-85
2021/03/14 04:09:44;;;;;;;0.43;0.43;;;2.90;99.90;;;;;;4888973;29;21164;-85
2021/03/14 04:12:11;;;;;;;0.60;0.60;;;2.90;99.90;;;;;;4884087;29;20196;-85
2021/03/14 04:14:37;;;;;;;0.83;0.63;;;2.90;99.90;;;;;;4885715;29;20449;-86
2021/03/14 04:17:04;;;;;;;1.53;0.63;;;2.90;99.90;;;;;;4883811;29;20679;-85
2021/03/14 04:19:33;;;;;;;0.73;0.60;;;2.90;99.90;;;;;;4885640;29;20462;-85
2021/03/14 04:22:00;;;;;;;0.73;0.73;;;2.90;99.90;;;;;;4886271;29;20498;-85
2021/03/14 04:24:28;;;;;;;0.50;0.50;;;3.00;99.90;;;;;;4885582;29;20457;-85
2021/03/14 04:26:55;;;;;;;0.60;0.60;;;3.00;99.90;;;;;;4883475;29;20456;-86
2021/03/14 04:29:21;;;;;;;0.80;0.80;;;3.00;99.90;;;;;;4886515;29;20476;-86
2021/03/14 04:31:49;;;;;;;0.60;0.60;;;3.00;99.90;;;;;;4882635;29;20440;-86
2021/03/14 04:34:17;;;;;;;0.70;0.70;;;3.00;99.90;;;;;;4885675;29;20463;-86
2021/03/14 04:36:45;;;;;;;0.83;0.70;;;3.00;99.90;;;;;;4897724;29;20447;-86
2021/03/14 04:39:11;;;;;;;0.57;0.57;;;2.90;99.90;;;;;;4900451;29;20612;-86
2021/03/14 04:41:38;;;;;;;0.50;0.50;;;2.90;99.90;;;;;;4881544;29;20550;-86
2021/03/14 04:44:05;;;;;;;0.50;0.50;;;2.90;99.90;;;;;;4883614;29;20445;-86
2021/03/14 04:46:32;;;;;;;0.63;0.63;;;2.90;99.90;;;;;;4885370;29;20468;-85
2021/03/14 04:48:58;;;;;;;0.60;0.60;;;2.90;99.90;;;;;;4895743;29;20476;-86
2021/03/14 04:51:26;;;;;;;0.50;0.50;;;2.90;99.90;;;;;;4883948;29;21908;-86
2021/03/14 04:53:54;;;;;;;0.67;0.60;;;2.90;99.90;;;;;;4885642;29;20807;-86
2021/03/14 04:56:22;;;;;;;0.67;0.67;;;2.90;99.90;;;;;;4882570;29;20539;-85
2021/03/14 04:58:50;;;;;;;0.70;0.70;;;2.80;99.90;;;;;;4881856;29;20519;-85
2021/03/14 05:01:19;;;;;;;0.50;0.50;;;2.70;99.90;;;;;;4896597;29;20456;-86
2021/03/14 05:03:51;;;;;;;0.93;0.70;;;2.70;99.90;;;;;;4881943;29;20846;-86
2021/03/14 05:06:21;;;;;;;0.73;0.63;;;2.70;99.90;;;;;;4887431;29;20460;-85
2021/03/14 05:08:48;;;;;;;0.63;0.63;;;2.70;99.90;;;;;;4892259;29;20465;-85
2021/03/14 05:11:19;;;;;;;0.50;0.50;;;2.70;99.90;;;;;;4882341;29;20449;-85
2021/03/14 05:13:46;;;;;;;0.73;0.73;;;2.70;99.90;;;;;;4880454;29;20456;-85
2021/03/14 05:16:14;;;;;;;0.50;0.50;;;2.70;99.90;;;;;;4879798;29;20479;-85
2021/03/14 05:18:42;;;;;;;1.23;0.87;;;2.60;99.90;;;;;;4881843;29;20494;-85
2021/03/14 05:21:08;;;;;;;0.50;0.50;;;2.50;99.90;;;;;;4884093;29;20456;-85
2021/03/14 05:23:35;;;;;;;0.70;0.70;;;2.50;99.90;;;;;;4882929;29;20449;-85
2021/03/14 05:26:01;;;;;;;0.80;0.80;;;2.40;99.90;;;;;;4893007;29;20851;-86
2021/03/14 05:28:28;;;;;;;0.90;0.90;;;2.40;99.90;;;;;;4884495;29;20444;-85
2021/03/14 05:30:53;;;;;;;0.60;0.60;;;2.40;99.90;;;;;;4883344;29;20468;-85
2021/03/14 05:33:19;;;;;;;1.13;1.03;;;2.30;99.90;;;;;;4878052;29;20445;-85
2021/03/14 05:35:45;;;;;;;1.43;0.90;;;2.30;99.90;;;;;;4883246;29;20213;-85
2021/03/14 05:38:11;;;;;;;0.60;0.60;;;2.20;99.90;;;;;;4897605;29;20274;-86
2021/03/14 05:40:37;;;;;;;0.60;0.60;;;2.20;99.90;;;;;;4884865;29;20199;-86
2021/03/14 05:43:04;;;;;;;0.80;0.60;;;2.20;99.90;;;;;;4884465;29;20449;-85
2021/03/14 05:45:30;;;;;;;0.70;0.70;;;2.20;99.90;;;;;;4882553;29;20464;-86
2021/03/14 05:47:57;;;;;;;0.60;0.60;;;2.20;99.90;;;;;;4898395;29;20452;-86
2021/03/14 05:50:26;;;;;;;0.97;0.50;;;2.10;99.90;;;;;;4894583;29;20567;-85
2021/03/14 05:52:52;;;;;;;0.37;0.30;;;2.20;99.90;;;;;;4880552;29;20449;-86
2021/03/14 05:55:23;;;;;;;0.50;0.43;;;2.10;99.90;;;;;;4884185;29;20449;-85
2021/03/14 05:57:54;;;;;;;0.50;0.50;;;2.10;99.90;;;;;;4882865;29;20826;-85
2021/03/14 06:00:28;;;;;;;2.57;0.40;;;2.00;99.90;;;;;;4881246;29;20558;-85
2021/03/14 06:03:01;;;;;;;0.30;0.30;;;2.10;99.90;;;;;;4881713;29;20860;-85
2021/03/14 06:05:29;;;;;;;0.67;0.53;;;2.10;99.90;;;;;;4881222;29;20460;-85
2021/03/14 06:07:56;;;;;;;0.60;0.60;;;2.10;99.90;;;;;;4879911;29;20797;-85
2021/03/14 06:10:23;;;;;;;0.60;0.60;;;2.20;99.90;;;;;;4875126;29;20484;-85
2021/03/14 06:12:49;;;;;;;0.87;0.87;;;2.20;99.90;;;;;;4881225;29;20432;-85
2021/03/14 06:15:16;;;;;;;0.80;0.80;;;2.20;99.90;;;;;;4876427;29;20875;-85
2021/03/14 06:17:41;;;;;;;1.47;1.17;;;2.20;99.90;;;;;;4882222;29;20452;-85
2021/03/14 06:20:09;;;;;;;1.10;1.10;;;2.30;99.90;;;;;;4881542;29;20480;-85
2021/03/14 06:22:36;;;;;;;1.43;0.93;;;2.40;99.90;;;;;;4880536;29;20193;-84
2021/03/14 06:25:03;;;;;;;1.40;1.30;;;2.40;99.90;;;;;;4880737;29;20449;-85
2021/03/14 06:27:38;;;;;;;0.83;0.83;;;2.40;99.90;;;;;;4880571;29;20529;-85
2021/03/14 06:30:06;;;;;;;1.17;1.07;;;2.50;99.90;;;;;;4894345;29;20485;-85
2021/03/14 06:32:32;;;;;;;1.03;1.03;;;2.50;99.90;;;;;;4884427;29;20440;-85
2021/03/14 06:35:41;;;;;;;1.60;1.17;;;2.50;99.90;;;;;;4883087;29;20444;-85
2021/03/14 06:38:22;;;;;;;1.13;1.13;;;2.50;99.90;;;;;;4850784;29;20452;-87
2021/03/14 06:41:12;;;;;;;1.80;1.13;;;2.60;99.90;;;;;;4880125;29;20598;-89
2021/03/14 06:43:41;;;;;;;1.73;1.10;;;2.70;99.90;;;;;;4876689;29;20438;-86
2021/03/14 06:46:28;;;;;;;0.93;0.93;;;2.90;99.90;;;;;;4876253;29;20468;-85
2021/03/14 06:49:11;;;;;;;1.10;1.10;;;2.90;99.90;;;;;;4881473;29;20464;-87
2021/03/14 06:51:39;;;;;;;1.90;1.20;;;3.00;99.90;;;;;;4882997;29;20512;-86
2021/03/14 06:54:20;;;;;;;1.10;1.10;;;3.00;99.90;;;;;;4884868;29;20846;-86
2021/03/14 06:57:15;;;;;;;1.60;1.20;;;3.10;99.90;;;;;;4883180;29;20810;-87
2021/03/14 06:59:47;;;;;;;1.83;1.73;;;3.00;99.90;;;;;;4874280;29;20457;-87
2021/03/14 07:02:31;;;;;;;3.53;2.10;;;3.00;99.90;;;;;;4878632;29;20890;-92
2021/03/14 07:05:03;;;;;;;4.80;1.90;;;3.50;99.90;;;;;;4880378;29;20452;-87
2021/03/14 07:07:31;;;;;;;2.07;1.33;;;3.50;99.90;;;;;;4879189;29;20461;-87
2021/03/14 07:10:04;;;;;;;4.60;1.37;;;3.40;99.90;;;;;;4878474;29;20517;-87
2021/03/14 07:12:38;;;;;;;4.07;1.27;;;3.30;99.90;;;;;;4880315;29;20523;-86
2021/03/14 07:15:12;;;;;;;2.87;1.30;;;3.30;99.90;;;;;;4892262;29;20457;-86
2021/03/14 07:17:39;;;;;;;3.10;1.70;;;3.30;99.90;;;;;;4893800;29;20453;-88
2021/03/14 07:20:06;;;;;;;1.83;1.50;;;3.30;99.90;;;;;;4879704;29;20605;-87
2021/03/14 07:22:32;;;;;;;1.70;1.10;;;3.40;99.90;;;;;;4882917;29;20785;-87
2021/03/14 07:24:58;;;;;;;1.57;1.40;;;3.50;99.90;;;;;;4901426;29;20443;-86
2021/03/14 07:27:31;;;;;;;1.03;1.00;;;3.70;99.90;;;;;;4891552;29;20196;-85
2021/03/14 07:30:01;;;;;;;1.90;1.30;;;4.00;99.90;;;;;;4877467;29;20220;-87
2021/03/14 07:32:28;;;;;;;1.00;0.93;;;4.20;99.90;;;;;;4895942;29;20460;-86
2021/03/14 07:34:54;;;;;;;1.90;1.10;;;4.30;99.90;;;;;;4875945;29;20504;-86
2021/03/14 07:37:20;;;;;;;3.63;1.50;;;4.30;99.90;;;;;;4892729;29;20473;-87
2021/03/14 07:39:47;;;;;;;1.40;1.30;;;4.30;99.90;;;;;;4897762;29;20482;-88
2021/03/14 07:42:21;;;;;;;3.10;1.30;;;4.20;99.90;;;;;;4882571;29;20540;-88
2021/03/14 07:44:47;;;;;;;2.93;1.10;;;4.20;99.90;;;;;;4901029;29;20438;-86
2021/03/14 07:47:18;;;;;;;4.40;1.27;;;4.10;99.90;;;;;;4877505;29;20527;-86
2021/03/14 07:49:49;;;;;;;1.27;1.03;;;4.30;99.90;;;;;;4879135;29;20483;-86
2021/03/14 07:52:22;;;;;;;2.43;1.60;;;4.40;99.90;;;;;;4881479;29;20461;-85
2021/03/14 07:54:53;;;;;;;1.80;1.10;;;4.70;99.90;;;;;;4880336;29;20499;-87
2021/03/14 07:57:23;;;;;;;0.90;0.90;;;4.80;99.90;;;;;;4881001;29;20443;-86
2021/03/14 07:59:49;;;;;;;3.70;1.10;;;4.80;99.90;;;;;;4880663;29;20463;-86
2021/03/14 08:02:17;;;;;;;3.63;1.33;;;4.80;99.90;;;;;;4880935;29;20808;-86
2021/03/14 08:04:47;;;;;;;2.73;1.40;;;4.70;99.90;;;;;;4879009;29;20687;-86
2021/03/14 08:07:13;;;;;;;3.93;1.27;;;4.70;99.90;;;;;;4877573;29;21049;-86
2021/03/14 08:09:46;;;;;;;2.20;1.57;;;4.90;99.90;;;;;;4882161;29;20515;-86
2021/03/14 08:12:24;;;;;;;4.23;1.90;;;5.00;99.90;;;;;;4880804;29;20464;-86
2021/03/14 08:14:52;;;;;;;2.60;1.27;;;4.80;99.90;;;;;;4880609;29;20540;-86
2021/03/14 08:17:19;;;;;;;1.70;1.60;;;4.50;99.90;;;;;;4897587;29;20462;-86
2021/03/14 08:19:46;;;;;;;4.90;1.50;;;4.40;99.90;;;;;;4882244;29;21629;-86
2021/03/14 08:22:37;;;;;;;2.00;1.10;;;4.30;99.90;;;;;;4878748;29;20881;-86
2021/03/14 08:25:21;;;;;;;2.60;0.93;;;4.30;99.90;;;;;;4890133;29;20458;-86
2021/03/14 08:27:52;;;;;;;3.50;1.57;;;4.40;99.90;;;;;;4877088;29;20499;-86
2021/03/14 08:30:30;;;;;;;2.10;1.30;;;4.40;99.90;;;;;;4878632;29;20481;-88
2021/03/14 08:33:17;;;;;;;3.50;1.93;;;4.60;99.90;;;;;;4885335;29;20472;-86
2021/03/14 08:36:13;;;;;;;3.40;1.70;;;5.00;99.90;;;;;;4875389;29;20460;-87
2021/03/14 08:38:43;;;;;;;2.40;1.20;;;5.40;99.90;;;;;;4889101;29;20931;-88
2021/03/14 08:41:30;;;;;;;2.33;1.00;;;5.40;99.90;;;;;;4880396;29;21515;-89
2021/03/14 08:44:06;;;;;;;3.87;1.10;;;5.50;99.90;;;;;;4881072;29;20480;-87
2021/03/14 08:46:50;;;;;;;1.97;1.00;;;5.60;99.90;;;;;;4876842;29;20441;-88
2021/03/14 08:49:23;;;;;;;2.50;0.90;;;5.70;99.90;;;;;;4875969;29;20503;-86
2021/03/14 08:51:50;;;;;;;1.23;1.00;;;6.00;99.90;;;;;;4872697;29;20543;-87
2021/03/14 08:54:23;;;;;;;3.40;0.93;;;6.30;99.90;;;;;;4879358;29;20468;-86
2021/03/14 08:56:54;;;;;;;4.67;1.10;;;6.40;99.90;;;;;;4875507;29;20452;-87
2021/03/14 08:59:20;;;;;;;1.70;0.93;;;6.40;99.90;;;;;;4879453;29;20456;-87
2021/03/14 09:01:58;;;;;;;1.27;1.17;;;6.50;99.90;;;;;;4881357;29;20848;-87
2021/03/14 09:04:26;;;;;;;0.97;0.87;;;6.40;99.90;;;;;;4880578;29;20443;-87
2021/03/14 09:06:52;;;;;;;0.97;0.87;;;6.10;99.90;;;;;;4880993;29;20644;-87
2021/03/14 09:09:21;;;;;;;2.73;1.00;;;5.80;99.90;;;;;;4882108;29;20978;-86
2021/03/14 09:11:48;;;;;;;2.40;1.50;;;5.90;99.90;;;;;;4878474;29;20197;-86
2021/03/14 09:14:39;;;;;;;1.60;1.43;;;5.70;99.90;;;;;;4879182;29;20446;-87
2021/03/14 09:17:10;;;;;;;1.37;0.90;;;5.70;99.90;;;;;;4881825;29;20889;-87
2021/03/14 09:19:52;;;;;;;1.90;1.10;;;5.70;99.90;;;;;;4879713;29;20601;-88
2021/03/14 09:22:29;;;;;;;3.43;1.50;;;5.70;99.90;;;;;;4882490;29;20511;-87
2021/03/14 09:24:58;;;;;;;1.60;1.20;;;5.70;99.90;;;;;;4891134;29;20859;-87
2021/03/14 09:27:23;;;;;;;2.50;1.00;;;5.80;99.90;;;;;;4890733;29;20484;-86
2021/03/14 09:30:19;;;;;;;1.50;1.40;;;5.80;99.90;;;;;;4877370;29;20587;-87
2021/03/14 09:32:53;;;;;;;1.80;1.70;;;5.80;99.90;;;;;;4874626;29;20260;-89
2021/03/14 09:35:27;;;;;;;1.40;1.30;;;6.10;99.90;;;;;;4881764;29;20467;-89
2021/03/14 09:37:54;;;;;;;1.57;1.30;;;6.30;99.90;;;;;;4881806;29;20604;-87
2021/03/14 09:40:21;;;;;;;1.70;1.17;;;6.20;99.90;;;;;;4880676;29;20460;-88
2021/03/14 09:42:50;;;;;;;1.30;1.20;;;6.10;99.90;;;;;;4878103;29;20533;-88
2021/03/14 09:45:21;;;;;;;1.17;1.10;;;6.20;99.90;;;;;;4880958;29;20531;-87
2021/03/14 09:48:06;;;;;;;2.07;0.90;;;6.00;99.90;;;;;;4879497;29;20476;-87
2021/03/14 09:50:52;;;;;;;2.20;1.30;;;6.00;99.90;;;;;;4880177;29;20567;-87
2021/03/14 09:53:20;;;;;;;1.40;1.10;;;6.10;99.90;;;;;;4890375;29;20459;-88
2021/03/14 09:55:53;;;;;;;0.60;0.50;;;6.20;99.90;;;;;;4879642;29;20464;-87
2021/03/14 09:58:22;;;;;;;0.93;0.60;;;6.30;99.90;;;;;;4872218;29;20932;-85
2021/03/14 10:00:49;;;;;;;1.27;0.93;;;6.10;99.90;;;;;;4891174;29;20858;-85
2021/03/14 10:03:17;;;;;;;1.60;1.00;;;6.00;99.90;;;;;;4877420;29;20870;-86
2021/03/14 10:05:45;;;;;;;1.53;1.00;;;5.90;99.90;;;;;;4876396;29;20876;-86
2021/03/14 10:08:14;;;;;;;1.10;0.60;;;6.30;99.90;;;;;;4878791;29;20531;-85
2021/03/14 10:10:41;;;;;;;1.70;0.70;;;6.10;99.90;;;;;;4893845;29;20484;-85
2021/03/14 10:13:07;;;;;;;1.33;0.90;;;6.30;99.90;;;;;;4880945;29;20529;-89
2021/03/14 10:15:35;;;;;;;1.10;0.60;;;7.00;99.90;;;;;;4876971;29;20550;-84
2021/03/14 10:18:02;;;;;;;1.07;0.70;;;7.30;99.90;;;;;;4879740;29;20993;-85
2021/03/14 10:20:28;;;;;;;2.40;1.10;;;7.40;99.90;;;;;;4879402;29;20460;-86
2021/03/14 10:23:04;;;;;;;0.80;0.50;;;7.70;99.90;;;;;;4874296;29;21565;-85
2021/03/14 10:25:32;;;;;;;0.77;0.60;;;7.20;99.90;;;;;;4879901;29;20453;-84
2021/03/14 10:28:12;;;;;;;0.70;0.63;;;7.20;99.90;;;;;;4866903;29;20533;-85
2021/03/14 10:30:42;;;;;;;0.50;0.50;;;7.20;99.40;;;;;;4875171;29;21162;-85
2021/03/14 10:33:09;;;;;;;1.13;0.63;;;7.30;98.00;;;;;;4879565;29;20465;-85
2021/03/14 10:35:34;;;;;;;0.77;0.60;;;7.20;98.20;;;;;;4875885;29;20839;-85
2021/03/14 10:38:22;;;;;;;2.10;0.70;;;7.30;97.80;;;;;;4875929;29;21242;-85
2021/03/14 10:40:49;;;;;;;1.63;0.57;;;7.00;97.90;;;;;;4878270;29;20547;-85
2021/03/14 10:43:24;;;;;;;0.90;0.80;;;6.90;97.60;;;;;;4890172;29;20480;-86
2021/03/14 10:45:51;;;;;;;1.20;0.90;;;6.80;98.50;;;;;;4893624;29;20453;-86
2021/03/14 10:48:18;;;;;;;0.70;0.53;;;6.80;98.00;;;;;;4878069;29;20518;-86
2021/03/14 10:50:44;;;;;;;2.63;1.10;;;6.70;98.80;;;;;;4878269;29;20485;-86
2021/03/14 10:53:13;;;;;;;0.93;0.60;;;6.70;98.70;;;;;;4877586;29;20445;-85
2021/03/14 10:55:40;;;;;;;1.40;0.80;;;6.60;98.20;;;;;;4871002;29;20471;-85
2021/03/14 10:58:12;;;;;;;2.20;0.93;;;6.60;98.60;;;;;;4872392;29;20441;-85
2021/03/14 11:00:50;;;;;;;3.37;1.77;;;6.80;98.70;;;;;;4874447;29;20469;-85
2021/03/14 11:03:28;;;;;;;1.97;1.00;;;6.90;98.00;;;;;;4877766;29;20809;-85
2021/03/14 11:06:29;;;;;;;3.07;1.10;;;7.00;97.20;;;;;;4875786;29;20475;-85
2021/03/14 11:09:02;;;;;;;0.70;0.70;;;6.60;97.90;;;;;;4888323;29;20479;-85
2021/03/14 11:11:36;;;;;;;3.13;1.20;;;6.70;97.50;;;;;;4888859;29;20466;-85
2021/03/14 11:14:26;;;;;;;1.53;0.80;;;7.00;97.70;;;;;;4872449;29;20449;-84
2021/03/14 11:17:14;;;;;;;1.50;0.60;;;6.90;95.90;;;;;;4873881;29;20444;-85
2021/03/14 11:19:43;;;;;;;0.90;0.70;;;6.90;96.90;;;;;;4877040;29;20454;-86
2021/03/14 11:22:09;;;;;;;1.47;0.70;;;7.20;97.20;;;;;;4875266;29;21158;-86
2021/03/14 11:24:37;;;;;;;1.10;0.70;;;7.30;95.80;;;;;;4878551;29;20465;-86
2021/03/14 11:27:03;;;;;;;0.83;0.73;;;7.70;96.70;;;;;;4880691;29;20460;-86
2021/03/14 11:29:29;;;;;;;3.90;0.70;;;7.70;96.40;;;;;;4872036;29;20497;-85
2021/03/14 11:31:55;;;;;;;2.00;0.57;;;7.50;95.10;;;;;;4871737;29;21043;-85
2021/03/14 11:34:21;;;;;;;1.20;0.73;;;7.40;95.50;;;;;;4874125;29;20194;-85
2021/03/14 11:36:48;;;;;;;1.40;1.30;;;7.20;96.50;;;;;;4877405;29;20928;-86
2021/03/14 11:39:14;;;;;;;2.43;0.73;;;7.00;96.90;;;;;;4867024;29;20499;-85
2021/03/14 11:41:40;;;;;;;2.23;0.97;;;6.90;96.90;;;;;;4868034;29;21172;-85
2021/03/14 11:44:06;;;;;;;2.93;1.27;;;6.80;95.20;;;;;;4878083;29;20460;-85
2021/03/14 11:46:33;;;;;;;1.70;0.90;;;7.00;95.30;;;;;;4872575;29;20453;-85
2021/03/14 11:48:58;;;;;;;1.03;0.87;;;7.00;95.80;;;;;;4868676;29;20566;-86
2021/03/14 11:51:24;;;;;;;2.00;1.03;;;7.20;95.70;;;;;;4870978;29;21309;-86
2021/03/14 11:53:50;;;;;;;0.90;0.67;;;7.60;95.70;;;;;;4869043;29;20621;-85
2021/03/14 11:56:16;;;;;;;1.73;0.80;;;7.90;94.50;;;;;;4873059;29;20469;-86
2021/03/14 11:58:44;;;;;;;3.47;0.63;;;8.10;94.40;;;;;;4868971;29;20189;-86
2021/03/14 12:01:16;;;;;;;3.97;1.57;;;7.80;92.70;;;;;;4874234;29;20198;-90
2021/03/14 12:03:53;;;;;;;3.93;1.97;;;7.70;93.60;;;;;;4868023;29;20469;-89
2021/03/14 12:06:19;;;;;;;2.00;0.90;;;7.80;93.90;;;;;;4871223;29;20857;-89
2021/03/14 12:08:45;;;;;;;3.57;1.20;;;7.60;94.30;;;;;;4871274;29;20463;-88
2021/03/14 12:11:12;;;;;;;0.67;0.67;;;7.30;93.80;;;;;;4865503;29;20474;-93
2021/03/14 12:13:38;;;;;;;0.70;0.70;;;7.20;94.40;;;;;;4873648;29;20517;-91
2021/03/14 12:16:04;;;;;;;1.23;0.70;;;7.40;94.70;;;;;;4876889;29;20892;-92
2021/03/14 12:18:30;;;;;;;0.63;0.60;;;7.40;94.60;;;;;;4873118;29;20453;-87
2021/03/14 12:20:57;;;;;;;4.67;1.57;;;7.20;95.10;;;;;;4867103;29;20456;-87
2021/03/14 12:23:23;;;;;;;2.50;0.83;;;7.40;96.20;;;;;;4871942;29;20683;-89
2021/03/14 12:25:49;;;;;;;1.87;0.80;;;7.30;95.50;;;;;;4873158;29;20473;-89
2021/03/14 12:28:15;;;;;;;2.00;1.40;;;7.20;96.20;;;;;;4874596;29;20484;-88
2021/03/14 12:30:40;;;;;;;1.60;0.83;;;7.00;98.60;;;;;;4881064;29;20575;-89
2021/03/14 12:33:07;;;;;;;1.60;1.20;;;6.80;99.90;;;;;;4874602;29;20242;-91
2021/03/14 12:35:33;;;;;;;3.40;1.07;;;5.80;99.90;;;;;;4873852;29;20188;-88
2021/03/14 12:37:59;;;;;;;2.53;0.80;;;5.50;99.90;;;;;;4873609;29;20555;-89
2021/03/14 12:40:24;;;;;;;2.03;1.60;;;5.30;99.90;;;;;;4870894;29;20895;-87
2021/03/14 12:42:51;;;;;;;1.43;1.07;;;5.20;99.90;;;;;;4884575;29;20466;-86
2021/03/14 12:45:19;;;;;;;2.30;1.57;;;5.10;99.90;;;;;;4874531;29;20274;-87
2021/03/14 12:47:45;;;;;;;1.77;1.27;;;4.90;99.90;;;;;;4890486;29;20466;-87
2021/03/14 12:50:13;;;;;;;2.10;1.73;;;4.90;99.90;;;;;;4872875;29;20887;-86
2021/03/14 12:52:39;;;;;;;2.80;2.57;;;5.00;99.90;;;;;;4887752;29;20560;-87
2021/03/14 12:55:05;;;;;;;5.43;2.20;;;4.90;99.90;;;;;;4879242;29;21097;-87
2021/03/14 12:57:31;;;;;;;2.07;1.87;;;4.80;99.90;;;;;;4883563;29;20453;-87
2021/03/14 12:59:57;;;;;;;2.43;1.97;;;4.80;99.90;;;;;;4878884;29;20564;-86
2021/03/14 13:02:22;;;;;;;3.20;2.07;;;4.90;99.90;;;;;;4876199;29;20560;-85
2021/03/14 13:04:48;;;;;;;1.20;1.10;;;4.90;99.90;;;;;;4875430;29;20197;-86
2021/03/14 13:07:14;;;;;;;11.70;1.90;;;4.70;99.90;;;;;;4879122;29;20203;-86
2021/03/14 13:09:39;;;;;;;1.80;1.30;;;4.60;99.90;;;;;;4869046;29;20912;-86